Historyczne dane pomiarowe

Dodano dane terminowe – wersja testowa.

Dane z okresu 1951-2019

Wersja bazy: 1.34 [2019-03-16, lista zmian], aktualizacja planowana na 2019-04-15

Dane meteo z obszaru Polski uzyskane na podstawie danych udostępnionych przez Instytut Meteorologii i Gospodarki Wodnej – Państwowy Instytut Badawczy.

 

Wybierz Datę:    

       

TemperaturaWilgotnośćZachmurzenieWiatrCiśnienieWidzialnośćZjawiska
 Data    tng td wb rh cc ccl cl cm ch dir g1 g2 mslp ppp      
1973-04-30 00:00:00 3.0--- 3.0 3.0100wxwx19wx--- 829.9 0.5---wxw1
1973-04-30 01:00:00 2.8------wxwx17wx--- 830.9----wxw1
1973-04-30 02:00:00 2.6------wxwx20wx--- 831.4----wxw1
1973-04-30 03:00:00 2.0--- 2.0 2.0100wxwx16wx--- 832.1----wxw1
1973-04-30 04:00:00 1.4------wxwx16wx--- 832.6----wxw1
1973-04-30 05:00:00 0.6------wxwxwx18wx--- 833.2----wxw1
1973-04-30 06:00:00 0.3--- -4.7 -1.768wxwxwx17wx--- 834.3 0.1---wxw1
1973-04-30 07:00:00 -0.4------wxwxwxwx11wx--- 835.1----wx
1973-04-30 08:00:00 1.4------wxwxwxwx13wx--- 836.2----wx
1973-04-30 09:00:00 1.4--- -3.0 -0.672wxwxwxwx7wx--- 837.2----wx
1973-04-30 10:00:00 1.8------wxwxwxwx5wx--- 838.0----wx
1973-04-30 11:00:00 2.9------wxwxwxwx0wx--- 838.2----wx
1973-04-30 12:00:00 3.2--- -0.9 1.272wxwxwxwx6wx--- 838.5 0.0---wx
1973-04-30 13:00:00 3.8------wxwxwx0wx--- 838.7----wx
1973-04-30 14:00:00 4.4------wxwxwxwx0wx--- 838.7----wx
1973-04-30 15:00:00 5.6--- 0.6 3.270wxwxwxwx0wx--- 838.7----wx
1973-04-30 16:00:00 5.2------wxwxwxwx0wx--- 838.4----wx
1973-04-30 17:00:00 4.2------wxwxwx0wx--- 838.3----wx
1973-04-30 18:00:00 3.4--- 1.2 2.486wxwxwx7wx--- 838.1 0.0---wx
1973-04-30 19:00:00 3.6------wxwxwx8wx--- 837.7----wx
1973-04-30 20:00:00 3.8------wxwxwx13wx--- 837.6----wx
1973-04-30 21:00:00 3.8--- 1.2 2.785wxwx14wx--- 837.4----wx
1973-04-30 22:00:00 3.6------wxwx14wx--- 837.5----wx
1973-04-30 23:00:00 3.5------wxwx14wx--- 837.2----wx

 

Źródłem pochodzenia danych jest Instytut Meteorologii i Gospodarki Wodnej – Państwowy Instytut Badawczy. Dane Instytutu Meteorologii i Gospodarki Wodnej – Państwowego Instytutu Badawczego zostały przetworzone.

Dane źródłowe można odnaleźć na stronie https://dane.imgw.pl